TRA59X EHAM-LPFR
Flight info
| Callsign | TRA59X |
|---|---|
| Flight time | 2h 49m |
| Altitude | 35000 |
| Route | WOODY N872 CIV N872 MEDIL DCT KOVIN DCT DUCRA DCT RESMI DCT DEKOD DCT DISAK DCT ARKIP DCT ARNAV DCT LMG DCT UVELI DCT OSMOB DCT VAVIX DCT BTZ DCT URUNA DCT SSN DCT VRA DCT NEA L14 ADINO DCT RAKOD DCT ELVAR DCT ALAGU |
| Aircraft | B738/M-SDE2E3FGHIRWXY/LB1 |
Departure
| Time | 2026-05-07 18:49 |
|---|---|
| Airport | Amsterdam Airport Schiphol (EHAM) |
Arrival
| Time | 2026-05-07 21:39 |
|---|---|
| Airport | Faro - Gago Coutinho International Airport (LPFR) |
| Time | Latitude | Longitude | Altitude | Speed | Heading |
|---|---|---|---|---|---|
| 2026-05-07 18:04 | 52.30896 | 4.77303 | 0 ft | 0 kts | 3° |
| 2026-05-07 18:34 | 52.30894 | 4.77303 | -1 ft | 1 kts | 3° |
| 2026-05-07 18:35 | 52.30879 | 4.77302 | -1 ft | 2 kts | 3° |
| 2026-05-07 18:35 | 52.30864 | 4.77301 | -1 ft | 2 kts | 3° |
| 2026-05-07 18:35 | 52.30851 | 4.77292 | -1 ft | 2 kts | 46° |
| 2026-05-07 18:35 | 52.30843 | 4.77273 | -1 ft | 0 kts | 76° |
| 2026-05-07 18:36 | 52.30842 | 4.77262 | -1 ft | 1 kts | 82° |
| 2026-05-07 18:36 | 52.30842 | 4.77260 | -1 ft | 0 kts | 81° |
| 2026-05-07 18:39 | 52.30844 | 4.77278 | -1 ft | 2 kts | 88° |
| 2026-05-07 18:39 | 52.30842 | 4.77318 | -1 ft | 4 kts | 94° |
| 2026-05-07 18:39 | 52.30840 | 4.77369 | -1 ft | 4 kts | 94° |
| 2026-05-07 18:40 | 52.30833 | 4.77433 | -1 ft | 6 kts | 114° |
| 2026-05-07 18:40 | 52.30790 | 4.77468 | -1 ft | 7 kts | 185° |
| 2026-05-07 18:40 | 52.30743 | 4.77460 | -1 ft | 8 kts | 185° |
| 2026-05-07 18:40 | 52.30664 | 4.77442 | -1 ft | 12 kts | 202° |
| 2026-05-07 18:41 | 52.30601 | 4.77325 | -1 ft | 13 kts | 237° |
| 2026-05-07 18:41 | 52.30543 | 4.77172 | -1 ft | 24 kts | 238° |
| 2026-05-07 18:41 | 52.30434 | 4.76884 | -1 ft | 30 kts | 238° |
| 2026-05-07 18:41 | 52.30325 | 4.76599 | -1 ft | 29 kts | 238° |
| 2026-05-07 18:42 | 52.30220 | 4.76327 | -1 ft | 28 kts | 238° |
| 2026-05-07 18:42 | 52.30115 | 4.76052 | -1 ft | 28 kts | 238° |
| 2026-05-07 18:42 | 52.30004 | 4.75766 | -1 ft | 30 kts | 238° |
| 2026-05-07 18:42 | 52.29899 | 4.75485 | -1 ft | 27 kts | 238° |
| 2026-05-07 18:43 | 52.29834 | 4.75292 | -1 ft | 16 kts | 258° |
| 2026-05-07 18:43 | 52.29882 | 4.75119 | -1 ft | 21 kts | 312° |
| 2026-05-07 18:43 | 52.29985 | 4.74927 | -1 ft | 22 kts | 311° |
| 2026-05-07 18:43 | 52.30085 | 4.74741 | -1 ft | 21 kts | 311° |
| 2026-05-07 18:44 | 52.30178 | 4.74568 | -1 ft | 19 kts | 311° |
| 2026-05-07 18:44 | 52.30267 | 4.74406 | -1 ft | 18 kts | 312° |
| 2026-05-07 18:44 | 52.30336 | 4.74255 | -1 ft | 15 kts | 292° |
| 2026-05-07 18:44 | 52.30338 | 4.74099 | -1 ft | 12 kts | 249° |
| 2026-05-07 18:45 | 52.30301 | 4.74017 | -1 ft | 6 kts | 222° |
| 2026-05-07 18:45 | 52.30260 | 4.73964 | -1 ft | 9 kts | 218° |
| 2026-05-07 18:45 | 52.30207 | 4.73892 | -1 ft | 9 kts | 228° |
| 2026-05-07 18:45 | 52.30187 | 4.73785 | -1 ft | 9 kts | 274° |
| 2026-05-07 18:46 | 52.30230 | 4.73734 | -1 ft | 7 kts | 6° |
| 2026-05-07 18:46 | 52.30246 | 4.73737 | -1 ft | 0 kts | 2° |
| 2026-05-07 18:47 | 52.30249 | 4.73737 | -1 ft | 0 kts | 2° |
| 2026-05-07 18:47 | 52.30250 | 4.73737 | -1 ft | 0 kts | 2° |
| 2026-05-07 18:48 | 52.30254 | 4.73737 | -1 ft | 4 kts | 2° |
| 2026-05-07 18:48 | 52.30357 | 4.73745 | -1 ft | 8 kts | 4° |
| 2026-05-07 18:48 | 52.30367 | 4.73746 | -1 ft | 5 kts | 4° |
| 2026-05-07 18:49 | 52.30662 | 4.73776 | -1 ft | 80 kts | 4° |
| 2026-05-07 18:49 | 52.31461 | 4.73850 | 0 ft | 147 kts | 4° |
| 2026-05-07 18:49 | 52.32627 | 4.73936 | 265 ft | 179 kts | 5° |
| 2026-05-07 18:49 | 52.33783 | 4.74018 | 1319 ft | 166 kts | 6° |
| 2026-05-07 18:50 | 52.34900 | 4.74518 | 1877 ft | 173 kts | 33° |
| 2026-05-07 18:50 | 52.35899 | 4.75675 | 2368 ft | 183 kts | 38° |
| 2026-05-07 18:50 | 52.36873 | 4.77147 | 2756 ft | 199 kts | 54° |
| 2026-05-07 18:50 | 52.37373 | 4.79331 | 3149 ft | 216 kts | 86° |
| 2026-05-07 18:51 | 52.37151 | 4.81784 | 3667 ft | 226 kts | 105° |
| 2026-05-07 18:51 | 52.36390 | 4.84026 | 4290 ft | 234 kts | 134° |
| 2026-05-07 18:51 | 52.35037 | 4.85529 | 4958 ft | 242 kts | 155° |
| 2026-05-07 18:51 | 52.33367 | 4.86286 | 5448 ft | 259 kts | 174° |
| 2026-05-07 18:52 | 52.31568 | 4.85962 | 6053 ft | 270 kts | 195° |
| 2026-05-07 18:52 | 52.29771 | 4.85030 | 6848 ft | 272 kts | 193° |
| 2026-05-07 18:52 | 52.27902 | 4.84628 | 7592 ft | 275 kts | 182° |
| 2026-05-07 18:52 | 52.26003 | 4.84603 | 8326 ft | 279 kts | 179° |
| 2026-05-07 18:53 | 52.24052 | 4.84658 | 9070 ft | 283 kts | 179° |
| 2026-05-07 18:53 | 52.22091 | 4.84686 | 9771 ft | 286 kts | 180° |
| 2026-05-07 18:53 | 52.20099 | 4.84674 | 10431 ft | 291 kts | 181° |
| 2026-05-07 18:53 | 52.18034 | 4.84637 | 10832 ft | 307 kts | 181° |
| 2026-05-07 18:54 | 52.15825 | 4.84588 | 11171 ft | 322 kts | 181° |
| 2026-05-07 18:54 | 52.13554 | 4.84536 | 11537 ft | 338 kts | 181° |
| 2026-05-07 18:54 | 52.11140 | 4.84483 | 11885 ft | 353 kts | 181° |
| 2026-05-07 18:54 | 52.08688 | 4.84431 | 12518 ft | 358 kts | 181° |
| 2026-05-07 18:55 | 52.06177 | 4.84380 | 13217 ft | 361 kts | 181° |
| 2026-05-07 18:55 | 52.03684 | 4.84294 | 13884 ft | 364 kts | 184° |
| 2026-05-07 18:55 | 52.01183 | 4.83690 | 14538 ft | 366 kts | 197° |
| 2026-05-07 18:55 | 51.98817 | 4.82226 | 15174 ft | 369 kts | 205° |
| 2026-05-07 18:56 | 51.96517 | 4.80402 | 15800 ft | 371 kts | 208° |
| 2026-05-07 18:56 | 51.94219 | 4.78461 | 16405 ft | 375 kts | 208° |
| 2026-05-07 18:56 | 51.91887 | 4.76500 | 17014 ft | 378 kts | 208° |
| 2026-05-07 18:56 | 51.89561 | 4.74588 | 17600 ft | 381 kts | 207° |
| 2026-05-07 18:57 | 51.87258 | 4.72735 | 18186 ft | 383 kts | 207° |
| 2026-05-07 18:57 | 51.84874 | 4.70846 | 18725 ft | 387 kts | 207° |
| 2026-05-07 18:57 | 51.82496 | 4.68983 | 19289 ft | 390 kts | 207° |
| 2026-05-07 18:57 | 51.80018 | 4.67082 | 19830 ft | 393 kts | 206° |
| 2026-05-07 18:58 | 51.77543 | 4.65285 | 20383 ft | 396 kts | 205° |
| 2026-05-07 18:58 | 51.75010 | 4.63501 | 20907 ft | 399 kts | 205° |
| 2026-05-07 18:58 | 51.72467 | 4.61727 | 21437 ft | 401 kts | 205° |
| 2026-05-07 18:58 | 51.69920 | 4.59948 | 21929 ft | 404 kts | 205° |
| 2026-05-07 18:59 | 51.67334 | 4.58137 | 22419 ft | 407 kts | 205° |
| 2026-05-07 18:59 | 51.64726 | 4.56304 | 22930 ft | 409 kts | 205° |
| 2026-05-07 18:59 | 51.62130 | 4.54476 | 23397 ft | 412 kts | 205° |
| 2026-05-07 18:59 | 51.59503 | 4.52623 | 23887 ft | 413 kts | 205° |
| 2026-05-07 19:00 | 51.56889 | 4.50781 | 24359 ft | 415 kts | 205° |
| 2026-05-07 19:00 | 51.54236 | 4.48910 | 24789 ft | 418 kts | 205° |
| 2026-05-07 19:00 | 51.51562 | 4.47026 | 25244 ft | 421 kts | 205° |
| 2026-05-07 19:00 | 51.48899 | 4.45152 | 25664 ft | 423 kts | 205° |
| 2026-05-07 19:01 | 51.46188 | 4.43246 | 26104 ft | 425 kts | 205° |
| 2026-05-07 19:01 | 51.43482 | 4.41347 | 26506 ft | 428 kts | 206° |
| 2026-05-07 19:01 | 51.40743 | 4.39426 | 26899 ft | 431 kts | 205° |
| 2026-05-07 19:01 | 51.38021 | 4.37519 | 27271 ft | 434 kts | 206° |
| 2026-05-07 19:02 | 51.35237 | 4.35572 | 27678 ft | 435 kts | 206° |
| 2026-05-07 19:02 | 51.32438 | 4.33617 | 28040 ft | 438 kts | 205° |
| 2026-05-07 19:02 | 51.29649 | 4.31672 | 28452 ft | 440 kts | 205° |
| 2026-05-07 19:02 | 51.26818 | 4.29699 | 28818 ft | 442 kts | 205° |
| 2026-05-07 19:03 | 51.23983 | 4.27727 | 29156 ft | 444 kts | 205° |
| 2026-05-07 19:03 | 51.21158 | 4.25764 | 29525 ft | 446 kts | 205° |
| 2026-05-07 19:03 | 51.18263 | 4.23756 | 29867 ft | 448 kts | 205° |
| 2026-05-07 19:03 | 51.15446 | 4.21805 | 30450 ft | 444 kts | 205° |
| 2026-05-07 19:04 | 51.12616 | 4.19849 | 30933 ft | 443 kts | 205° |
| 2026-05-07 19:04 | 51.09784 | 4.17893 | 31317 ft | 442 kts | 205° |
| 2026-05-07 19:04 | 51.06992 | 4.15967 | 31683 ft | 442 kts | 205° |
| 2026-05-07 19:04 | 51.04163 | 4.14018 | 32051 ft | 441 kts | 205° |
| 2026-05-07 19:05 | 51.01382 | 4.12104 | 32392 ft | 441 kts | 205° |
| 2026-05-07 19:05 | 50.98560 | 4.10164 | 32747 ft | 440 kts | 205° |
| 2026-05-07 19:05 | 50.95759 | 4.08242 | 33084 ft | 440 kts | 205° |
| 2026-05-07 19:05 | 50.92968 | 4.06328 | 33422 ft | 439 kts | 205° |
| 2026-05-07 19:06 | 50.90152 | 4.04400 | 33746 ft | 439 kts | 205° |
| 2026-05-07 19:06 | 50.84568 | 4.00585 | 34365 ft | 437 kts | 205° |
| 2026-05-07 19:06 | 50.81765 | 3.98674 | 34653 ft | 437 kts | 205° |
| 2026-05-07 19:07 | 50.79048 | 3.96823 | 34936 ft | 436 kts | 205° |
| 2026-05-07 19:07 | 50.76248 | 3.94919 | 35028 ft | 438 kts | 205° |
| 2026-05-07 19:07 | 50.70696 | 3.91151 | 35042 ft | 434 kts | 205° |
| 2026-05-07 19:08 | 50.65197 | 3.87429 | 35043 ft | 434 kts | 205° |
| 2026-05-07 19:08 | 50.59641 | 3.83675 | 35022 ft | 435 kts | 205° |
| 2026-05-07 19:09 | 50.54079 | 3.79928 | 35036 ft | 435 kts | 205° |
| 2026-05-07 19:09 | 50.48550 | 3.76214 | 35042 ft | 434 kts | 205° |
| 2026-05-07 19:10 | 50.43040 | 3.72521 | 35036 ft | 434 kts | 205° |
| 2026-05-07 19:10 | 50.37578 | 3.68455 | 35036 ft | 433 kts | 209° |
| 2026-05-07 19:11 | 50.32259 | 3.64136 | 35036 ft | 432 kts | 210° |
| 2026-05-07 19:11 | 50.26957 | 3.59831 | 35035 ft | 432 kts | 210° |
| 2026-05-07 19:12 | 50.21625 | 3.55561 | 35030 ft | 432 kts | 209° |
| 2026-05-07 19:12 | 50.16264 | 3.51318 | 35034 ft | 431 kts | 209° |
| 2026-05-07 19:13 | 50.10937 | 3.47130 | 35029 ft | 434 kts | 209° |
| 2026-05-07 19:13 | 50.05561 | 3.42923 | 35027 ft | 432 kts | 209° |
| 2026-05-07 19:14 | 50.00191 | 3.38734 | 35027 ft | 432 kts | 209° |
| 2026-05-07 19:14 | 49.94856 | 3.34584 | 35022 ft | 431 kts | 208° |
| 2026-05-07 19:15 | 49.89460 | 3.30397 | 35022 ft | 431 kts | 208° |
| 2026-05-07 19:15 | 49.84079 | 3.26232 | 35027 ft | 432 kts | 208° |
| 2026-05-07 19:16 | 49.78679 | 3.22062 | 35021 ft | 432 kts | 208° |
| 2026-05-07 19:16 | 49.73311 | 3.17928 | 35026 ft | 432 kts | 208° |
| 2026-05-07 19:17 | 49.67954 | 3.13812 | 35024 ft | 431 kts | 208° |
| 2026-05-07 19:17 | 49.62596 | 3.09707 | 35022 ft | 431 kts | 208° |
| 2026-05-07 19:18 | 49.57227 | 3.05602 | 35021 ft | 430 kts | 208° |
| 2026-05-07 19:18 | 49.51881 | 3.01526 | 35023 ft | 431 kts | 208° |
| 2026-05-07 19:19 | 49.46543 | 2.97465 | 35023 ft | 431 kts | 208° |
| 2026-05-07 19:19 | 49.41168 | 2.93386 | 35025 ft | 431 kts | 208° |
| 2026-05-07 19:20 | 49.35836 | 2.89350 | 35023 ft | 430 kts | 208° |
| 2026-05-07 19:20 | 49.30456 | 2.85288 | 35023 ft | 430 kts | 208° |
| 2026-05-07 19:21 | 49.25128 | 2.81275 | 35025 ft | 430 kts | 208° |
| 2026-05-07 19:21 | 49.19746 | 2.77230 | 35028 ft | 430 kts | 208° |
| 2026-05-07 19:22 | 49.14417 | 2.73237 | 35029 ft | 430 kts | 208° |
| 2026-05-07 19:22 | 49.09052 | 2.69225 | 35028 ft | 430 kts | 208° |
| 2026-05-07 19:23 | 49.03693 | 2.65227 | 35031 ft | 430 kts | 208° |
| 2026-05-07 19:23 | 48.98312 | 2.61223 | 35030 ft | 429 kts | 208° |
| 2026-05-07 19:24 | 48.92983 | 2.57267 | 35024 ft | 429 kts | 208° |
| 2026-05-07 19:24 | 48.87616 | 2.53292 | 35026 ft | 429 kts | 208° |
| 2026-05-07 19:25 | 48.82241 | 2.49322 | 35024 ft | 429 kts | 208° |
| 2026-05-07 19:25 | 48.76882 | 2.45371 | 35024 ft | 428 kts | 208° |
| 2026-05-07 19:26 | 48.71519 | 2.41428 | 35019 ft | 428 kts | 208° |
| 2026-05-07 19:26 | 48.66188 | 2.37517 | 35016 ft | 428 kts | 208° |
| 2026-05-07 19:27 | 48.60852 | 2.33613 | 35018 ft | 427 kts | 207° |
| 2026-05-07 19:27 | 48.55462 | 2.29679 | 35012 ft | 427 kts | 207° |
| 2026-05-07 19:28 | 48.50159 | 2.25817 | 35011 ft | 427 kts | 207° |
| 2026-05-07 19:28 | 48.44815 | 2.21934 | 35003 ft | 426 kts | 207° |
| 2026-05-07 19:29 | 48.39469 | 2.18058 | 35004 ft | 427 kts | 207° |
| 2026-05-07 19:29 | 48.34140 | 2.14207 | 35004 ft | 426 kts | 207° |
| 2026-05-07 19:30 | 48.28575 | 2.11213 | 35001 ft | 429 kts | 193° |
| 2026-05-07 19:30 | 48.25591 | 2.10819 | 35003 ft | 433 kts | 182° |
| 2026-05-07 19:30 | 48.22577 | 2.11084 | 35007 ft | 436 kts | 177° |
| 2026-05-07 19:31 | 48.16584 | 2.12273 | 35002 ft | 436 kts | 175° |
| 2026-05-07 19:31 | 48.10573 | 2.12843 | 35001 ft | 432 kts | 186° |
| 2026-05-07 19:32 | 48.04637 | 2.11917 | 35007 ft | 431 kts | 191° |
| 2026-05-07 19:32 | 47.98729 | 2.10627 | 35007 ft | 429 kts | 191° |
| 2026-05-07 19:33 | 47.92795 | 2.09355 | 35008 ft | 430 kts | 191° |
| 2026-05-07 19:33 | 47.86898 | 2.08156 | 35011 ft | 432 kts | 190° |
| 2026-05-07 19:34 | 47.80870 | 2.06975 | 35004 ft | 435 kts | 190° |
| 2026-05-07 19:34 | 47.74892 | 2.05830 | 34999 ft | 433 kts | 190° |
| 2026-05-07 19:35 | 47.68955 | 2.04703 | 34996 ft | 433 kts | 190° |
| 2026-05-07 19:35 | 47.63035 | 2.03178 | 34989 ft | 432 kts | 197° |
| 2026-05-07 19:36 | 47.57336 | 2.00407 | 34988 ft | 430 kts | 203° |
| 2026-05-07 19:36 | 47.51818 | 1.97179 | 34982 ft | 429 kts | 204° |
| 2026-05-07 19:37 | 47.46281 | 1.93877 | 34984 ft | 428 kts | 204° |
| 2026-05-07 19:37 | 47.40789 | 1.90644 | 34981 ft | 428 kts | 204° |
| 2026-05-07 19:38 | 47.35243 | 1.87419 | 34977 ft | 428 kts | 203° |
| 2026-05-07 19:38 | 47.29718 | 1.84232 | 34980 ft | 427 kts | 203° |
| 2026-05-07 19:39 | 47.24200 | 1.81064 | 34980 ft | 427 kts | 203° |
| 2026-05-07 19:39 | 47.18675 | 1.77906 | 34984 ft | 428 kts | 203° |
| 2026-05-07 19:40 | 47.13112 | 1.74763 | 34982 ft | 428 kts | 203° |
| 2026-05-07 19:40 | 47.07572 | 1.71651 | 34978 ft | 428 kts | 203° |
| 2026-05-07 19:41 | 47.02039 | 1.68548 | 34980 ft | 427 kts | 203° |
| 2026-05-07 19:41 | 46.96497 | 1.65444 | 34982 ft | 428 kts | 203° |
| 2026-05-07 19:42 | 46.90964 | 1.62352 | 34982 ft | 427 kts | 203° |
| 2026-05-07 19:42 | 46.85399 | 1.59248 | 34984 ft | 427 kts | 203° |
| 2026-05-07 19:43 | 46.79862 | 1.56166 | 34984 ft | 426 kts | 202° |
| 2026-05-07 19:43 | 46.74326 | 1.53090 | 34982 ft | 426 kts | 202° |
| 2026-05-07 19:44 | 46.68777 | 1.50015 | 34978 ft | 427 kts | 202° |
| 2026-05-07 19:44 | 46.63260 | 1.46964 | 34976 ft | 427 kts | 202° |
| 2026-05-07 19:45 | 46.57721 | 1.43908 | 34975 ft | 427 kts | 202° |
| 2026-05-07 19:45 | 46.52174 | 1.40854 | 34974 ft | 426 kts | 202° |
| 2026-05-07 19:46 | 46.46673 | 1.37833 | 34973 ft | 426 kts | 202° |
| 2026-05-07 19:46 | 46.41119 | 1.34788 | 34970 ft | 426 kts | 201° |
| 2026-05-07 19:47 | 46.35547 | 1.31740 | 34970 ft | 425 kts | 201° |
| 2026-05-07 19:47 | 46.30008 | 1.28717 | 34971 ft | 426 kts | 201° |
| 2026-05-07 19:48 | 46.24490 | 1.25712 | 34971 ft | 426 kts | 201° |
| 2026-05-07 19:48 | 46.18923 | 1.22687 | 34974 ft | 427 kts | 201° |
| 2026-05-07 19:49 | 46.13414 | 1.19700 | 34977 ft | 427 kts | 201° |
| 2026-05-07 19:49 | 46.07836 | 1.16683 | 34977 ft | 426 kts | 201° |
| 2026-05-07 19:50 | 46.02313 | 1.13701 | 34970 ft | 426 kts | 201° |
| 2026-05-07 19:50 | 45.96783 | 1.10722 | 34957 ft | 426 kts | 201° |
| 2026-05-07 19:51 | 45.91269 | 1.07757 | 34953 ft | 426 kts | 201° |
| 2026-05-07 19:51 | 45.85700 | 1.04742 | 34956 ft | 425 kts | 202° |
| 2026-05-07 19:52 | 45.80460 | 1.00914 | 34958 ft | 424 kts | 213° |
| 2026-05-07 19:52 | 45.75728 | 0.95822 | 34959 ft | 426 kts | 219° |
| 2026-05-07 19:53 | 45.71226 | 0.90392 | 34956 ft | 426 kts | 220° |
| 2026-05-07 19:53 | 45.66704 | 0.84878 | 34948 ft | 426 kts | 220° |
| 2026-05-07 19:54 | 45.62190 | 0.79429 | 34949 ft | 426 kts | 220° |
| 2026-05-07 19:54 | 45.57678 | 0.74032 | 34948 ft | 426 kts | 219° |
| 2026-05-07 19:55 | 45.53119 | 0.68610 | 34948 ft | 426 kts | 219° |
| 2026-05-07 19:55 | 45.48600 | 0.63255 | 34942 ft | 428 kts | 219° |
| 2026-05-07 19:56 | 45.44020 | 0.57843 | 34943 ft | 427 kts | 219° |
| 2026-05-07 19:56 | 45.39459 | 0.52466 | 34940 ft | 428 kts | 219° |
| 2026-05-07 19:57 | 45.34892 | 0.47094 | 34945 ft | 428 kts | 219° |
| 2026-05-07 19:57 | 45.30287 | 0.41688 | 34968 ft | 430 kts | 219° |
| 2026-05-07 19:58 | 45.25700 | 0.36315 | 34940 ft | 429 kts | 219° |
| 2026-05-07 19:58 | 45.21073 | 0.30909 | 34935 ft | 430 kts | 218° |
| 2026-05-07 19:59 | 45.16458 | 0.25526 | 34931 ft | 429 kts | 218° |
| 2026-05-07 19:59 | 45.11869 | 0.20188 | 34935 ft | 430 kts | 218° |
| 2026-05-07 20:00 | 45.07286 | 0.14866 | 34929 ft | 429 kts | 218° |
| 2026-05-07 20:00 | 45.02680 | 0.09529 | 34929 ft | 429 kts | 218° |
| 2026-05-07 20:01 | 44.98065 | 0.04195 | 34923 ft | 430 kts | 218° |
| 2026-05-07 20:01 | 44.93442 | -0.01138 | 34922 ft | 430 kts | 218° |
| 2026-05-07 20:02 | 44.88802 | -0.06481 | 34924 ft | 431 kts | 219° |
| 2026-05-07 20:02 | 44.84151 | -0.11822 | 34928 ft | 431 kts | 219° |
| 2026-05-07 20:03 | 44.79508 | -0.17142 | 34930 ft | 430 kts | 219° |
| 2026-05-07 20:03 | 44.74878 | -0.22439 | 34940 ft | 431 kts | 219° |
| 2026-05-07 20:04 | 44.70263 | -0.27707 | 34932 ft | 430 kts | 219° |
| 2026-05-07 20:04 | 44.65625 | -0.32989 | 34922 ft | 431 kts | 219° |
| 2026-05-07 20:05 | 44.60857 | -0.38033 | 34926 ft | 430 kts | 215° |
| 2026-05-07 20:05 | 44.55881 | -0.42745 | 34927 ft | 431 kts | 214° |
| 2026-05-07 20:06 | 44.50896 | -0.47409 | 34928 ft | 432 kts | 214° |
| 2026-05-07 20:06 | 44.45931 | -0.52101 | 34927 ft | 431 kts | 214° |
| 2026-05-07 20:07 | 44.40977 | -0.56812 | 34919 ft | 433 kts | 215° |
| 2026-05-07 20:07 | 44.35997 | -0.61557 | 34922 ft | 433 kts | 215° |
| 2026-05-07 20:08 | 44.31016 | -0.66302 | 34923 ft | 433 kts | 214° |
| 2026-05-07 20:08 | 44.26072 | -0.71034 | 34923 ft | 433 kts | 215° |
| 2026-05-07 20:09 | 44.21225 | -0.75939 | 34919 ft | 434 kts | 217° |
| 2026-05-07 20:10 | 44.13947 | -0.83439 | 34922 ft | 435 kts | 217° |
| 2026-05-07 20:10 | 44.09090 | -0.88410 | 34923 ft | 436 kts | 217° |
| 2026-05-07 20:11 | 44.04203 | -0.93384 | 34927 ft | 435 kts | 217° |
| 2026-05-07 20:11 | 43.99343 | -0.98311 | 34920 ft | 435 kts | 217° |
| 2026-05-07 20:12 | 43.94448 | -1.03260 | 34927 ft | 436 kts | 217° |
| 2026-05-07 20:12 | 43.89555 | -1.08194 | 34927 ft | 435 kts | 217° |
| 2026-05-07 20:13 | 43.84651 | -1.13126 | 34928 ft | 435 kts | 217° |
| 2026-05-07 20:13 | 43.79753 | -1.18045 | 34925 ft | 436 kts | 217° |
| 2026-05-07 20:14 | 43.74850 | -1.22957 | 34925 ft | 437 kts | 218° |
| 2026-05-07 20:14 | 43.69936 | -1.27869 | 34927 ft | 436 kts | 217° |
| 2026-05-07 20:15 | 43.65025 | -1.32769 | 34927 ft | 437 kts | 218° |
| 2026-05-07 20:15 | 43.60080 | -1.37693 | 34928 ft | 437 kts | 218° |
| 2026-05-07 20:16 | 43.55184 | -1.42557 | 34923 ft | 437 kts | 218° |
| 2026-05-07 20:16 | 43.50266 | -1.47467 | 34927 ft | 438 kts | 220° |
| 2026-05-07 20:17 | 43.45826 | -1.53147 | 34920 ft | 433 kts | 232° |
| 2026-05-07 20:17 | 43.42247 | -1.59752 | 34925 ft | 433 kts | 238° |
| 2026-05-07 20:18 | 43.38921 | -1.66664 | 34922 ft | 433 kts | 238° |
| 2026-05-07 20:18 | 43.35655 | -1.73517 | 34930 ft | 431 kts | 239° |
| 2026-05-07 20:19 | 43.32364 | -1.80368 | 34930 ft | 431 kts | 239° |
| 2026-05-07 20:19 | 43.28963 | -1.87181 | 34917 ft | 434 kts | 237° |
| 2026-05-07 20:20 | 43.25343 | -1.93747 | 34939 ft | 435 kts | 235° |
| 2026-05-07 20:20 | 43.21651 | -2.00301 | 34940 ft | 434 kts | 236° |
| 2026-05-07 20:21 | 43.17996 | -2.06823 | 34935 ft | 433 kts | 236° |
| 2026-05-07 20:21 | 43.14347 | -2.13363 | 34938 ft | 432 kts | 236° |
| 2026-05-07 20:22 | 43.10719 | -2.19873 | 34939 ft | 432 kts | 236° |
| 2026-05-07 20:22 | 43.07076 | -2.26404 | 34941 ft | 431 kts | 236° |
| 2026-05-07 20:23 | 43.03449 | -2.32894 | 34948 ft | 431 kts | 237° |
| 2026-05-07 20:23 | 42.99795 | -2.39421 | 34936 ft | 431 kts | 237° |
| 2026-05-07 20:24 | 42.96148 | -2.45923 | 34935 ft | 432 kts | 237° |
| 2026-05-07 20:24 | 42.92506 | -2.52399 | 34946 ft | 429 kts | 237° |
| 2026-05-07 20:25 | 42.88898 | -2.58800 | 34953 ft | 427 kts | 237° |
| 2026-05-07 20:25 | 42.85267 | -2.65230 | 34944 ft | 427 kts | 237° |
| 2026-05-07 20:26 | 42.81627 | -2.71661 | 34946 ft | 427 kts | 237° |
| 2026-05-07 20:26 | 42.77998 | -2.78061 | 34949 ft | 426 kts | 237° |
| 2026-05-07 20:27 | 42.74367 | -2.84447 | 34944 ft | 427 kts | 238° |
| 2026-05-07 20:27 | 42.70757 | -2.90830 | 34949 ft | 425 kts | 238° |
| 2026-05-07 20:28 | 42.67205 | -2.97227 | 34947 ft | 423 kts | 239° |
| 2026-05-07 20:28 | 42.63677 | -3.03585 | 34954 ft | 423 kts | 239° |
| 2026-05-07 20:29 | 42.60138 | -3.09945 | 34948 ft | 423 kts | 239° |
| 2026-05-07 20:29 | 42.56629 | -3.16217 | 34958 ft | 417 kts | 239° |
| 2026-05-07 20:30 | 42.53124 | -3.22475 | 34954 ft | 418 kts | 239° |
| 2026-05-07 20:30 | 42.49582 | -3.28775 | 34959 ft | 417 kts | 239° |
| 2026-05-07 20:31 | 42.46083 | -3.34985 | 34958 ft | 416 kts | 239° |
| 2026-05-07 20:31 | 42.42597 | -3.41170 | 34947 ft | 414 kts | 239° |
| 2026-05-07 20:32 | 42.39110 | -3.47340 | 34938 ft | 412 kts | 239° |
| 2026-05-07 20:32 | 42.35635 | -3.53470 | 34936 ft | 409 kts | 240° |
| 2026-05-07 20:33 | 42.32158 | -3.59597 | 34942 ft | 412 kts | 240° |
| 2026-05-07 20:33 | 42.28688 | -3.65685 | 34939 ft | 405 kts | 239° |
| 2026-05-07 20:34 | 42.25244 | -3.71732 | 34938 ft | 409 kts | 239° |
| 2026-05-07 20:34 | 42.21782 | -3.77794 | 34945 ft | 405 kts | 239° |
| 2026-05-07 20:35 | 42.18322 | -3.83845 | 34950 ft | 407 kts | 239° |
| 2026-05-07 20:35 | 42.14890 | -3.89826 | 34953 ft | 404 kts | 239° |
| 2026-05-07 20:36 | 42.11461 | -3.95795 | 34952 ft | 407 kts | 239° |
| 2026-05-07 20:36 | 42.08008 | -4.01789 | 34949 ft | 402 kts | 238° |
| 2026-05-07 20:37 | 42.04579 | -4.07715 | 34947 ft | 403 kts | 238° |
| 2026-05-07 20:37 | 42.00774 | -4.13341 | 34946 ft | 409 kts | 230° |
| 2026-05-07 20:38 | 41.96484 | -4.18455 | 34943 ft | 413 kts | 228° |
| 2026-05-07 20:38 | 41.92171 | -4.23414 | 34942 ft | 410 kts | 228° |
| 2026-05-07 20:39 | 41.87837 | -4.28420 | 34940 ft | 413 kts | 228° |
| 2026-05-07 20:39 | 41.83546 | -4.33396 | 34938 ft | 413 kts | 228° |
| 2026-05-07 20:40 | 41.79205 | -4.38431 | 34937 ft | 412 kts | 228° |
| 2026-05-07 20:40 | 41.74868 | -4.43468 | 34932 ft | 413 kts | 228° |
| 2026-05-07 20:41 | 41.70548 | -4.48479 | 34931 ft | 414 kts | 228° |
| 2026-05-07 20:41 | 41.66196 | -4.53520 | 34931 ft | 412 kts | 229° |
| 2026-05-07 20:42 | 41.61880 | -4.58512 | 34931 ft | 413 kts | 228° |
| 2026-05-07 20:42 | 41.57554 | -4.63497 | 34930 ft | 411 kts | 228° |
| 2026-05-07 20:43 | 41.53193 | -4.68523 | 34927 ft | 413 kts | 227° |
| 2026-05-07 20:43 | 41.48851 | -4.73514 | 34924 ft | 411 kts | 227° |
| 2026-05-07 20:44 | 41.44492 | -4.78521 | 34920 ft | 413 kts | 227° |
| 2026-05-07 20:44 | 41.40145 | -4.83502 | 34915 ft | 412 kts | 227° |
| 2026-05-07 20:45 | 41.35801 | -4.88470 | 34913 ft | 414 kts | 227° |
| 2026-05-07 20:45 | 41.31421 | -4.93467 | 34917 ft | 413 kts | 227° |
| 2026-05-07 20:46 | 41.27079 | -4.98408 | 34915 ft | 413 kts | 227° |
| 2026-05-07 20:46 | 41.22725 | -5.03349 | 34914 ft | 412 kts | 226° |
| 2026-05-07 20:47 | 41.18353 | -5.08310 | 34915 ft | 413 kts | 227° |
| 2026-05-07 20:47 | 41.13988 | -5.13253 | 34925 ft | 413 kts | 227° |
| 2026-05-07 20:48 | 41.09647 | -5.18156 | 34931 ft | 410 kts | 227° |
| 2026-05-07 20:48 | 41.05270 | -5.23098 | 34933 ft | 414 kts | 227° |
| 2026-05-07 20:49 | 41.00913 | -5.28002 | 34931 ft | 411 kts | 226° |
| 2026-05-07 20:49 | 40.96565 | -5.32887 | 34924 ft | 412 kts | 227° |
| 2026-05-07 20:50 | 40.92196 | -5.37789 | 34917 ft | 409 kts | 226° |
| 2026-05-07 20:50 | 40.87830 | -5.42681 | 34917 ft | 410 kts | 226° |
| 2026-05-07 20:51 | 40.83493 | -5.47528 | 34918 ft | 410 kts | 226° |
| 2026-05-07 20:51 | 40.79171 | -5.52350 | 34921 ft | 407 kts | 226° |
| 2026-05-07 20:52 | 40.74824 | -5.57197 | 34925 ft | 410 kts | 226° |
| 2026-05-07 20:52 | 40.70474 | -5.62037 | 34926 ft | 409 kts | 226° |
| 2026-05-07 20:53 | 40.66137 | -5.66850 | 34924 ft | 408 kts | 225° |
| 2026-05-07 20:53 | 40.61760 | -5.71699 | 34924 ft | 409 kts | 225° |
| 2026-05-07 20:54 | 40.57397 | -5.76526 | 34923 ft | 408 kts | 225° |
| 2026-05-07 20:54 | 40.53076 | -5.81300 | 34921 ft | 409 kts | 225° |
| 2026-05-07 20:55 | 40.48711 | -5.86118 | 34916 ft | 408 kts | 224° |
| 2026-05-07 20:55 | 40.44397 | -5.90872 | 34910 ft | 409 kts | 225° |
| 2026-05-07 20:56 | 40.40049 | -5.95652 | 34908 ft | 408 kts | 224° |
| 2026-05-07 20:56 | 40.35664 | -6.00461 | 34900 ft | 408 kts | 224° |
| 2026-05-07 20:57 | 40.31352 | -6.05175 | 34898 ft | 407 kts | 224° |
| 2026-05-07 20:57 | 40.26997 | -6.09933 | 34889 ft | 409 kts | 224° |
| 2026-05-07 20:58 | 40.22656 | -6.14671 | 34887 ft | 407 kts | 224° |
| 2026-05-07 20:58 | 40.18292 | -6.19426 | 34887 ft | 409 kts | 224° |
| 2026-05-07 20:59 | 40.13922 | -6.24170 | 34885 ft | 409 kts | 223° |
| 2026-05-07 20:59 | 40.09541 | -6.28925 | 34878 ft | 408 kts | 223° |
| 2026-05-07 21:00 | 40.05176 | -6.33659 | 34874 ft | 407 kts | 223° |
| 2026-05-07 21:00 | 40.00822 | -6.38370 | 34869 ft | 409 kts | 223° |
| 2026-05-07 21:01 | 39.96441 | -6.43102 | 34872 ft | 408 kts | 223° |
| 2026-05-07 21:01 | 39.92087 | -6.47801 | 34876 ft | 409 kts | 223° |
| 2026-05-07 21:02 | 39.87720 | -6.52497 | 34878 ft | 407 kts | 223° |
| 2026-05-07 21:02 | 39.83376 | -6.57167 | 34880 ft | 406 kts | 223° |
| 2026-05-07 21:03 | 39.79064 | -6.61796 | 34881 ft | 404 kts | 223° |
| 2026-05-07 21:03 | 39.74690 | -6.66472 | 34881 ft | 406 kts | 221° |
| 2026-05-07 21:04 | 39.70345 | -6.71114 | 34885 ft | 406 kts | 221° |
| 2026-05-07 21:04 | 39.65993 | -6.75765 | 34890 ft | 402 kts | 222° |
| 2026-05-07 21:05 | 39.61666 | -6.80380 | 34889 ft | 405 kts | 221° |
| 2026-05-07 21:05 | 39.57322 | -6.85001 | 34891 ft | 404 kts | 221° |
| 2026-05-07 21:06 | 39.52976 | -6.89609 | 34889 ft | 404 kts | 221° |
| 2026-05-07 21:06 | 39.48648 | -6.94195 | 34894 ft | 404 kts | 221° |
| 2026-05-07 21:07 | 39.44306 | -6.98785 | 34894 ft | 404 kts | 221° |
| 2026-05-07 21:07 | 39.39955 | -7.03374 | 34883 ft | 405 kts | 221° |
| 2026-05-07 21:08 | 39.35600 | -7.07973 | 34880 ft | 405 kts | 221° |
| 2026-05-07 21:08 | 39.31239 | -7.12566 | 34885 ft | 405 kts | 221° |
| 2026-05-07 21:09 | 39.26887 | -7.17139 | 34891 ft | 405 kts | 221° |
| 2026-05-07 21:09 | 39.22395 | -7.21429 | 34892 ft | 405 kts | 213° |
| 2026-05-07 21:10 | 39.17178 | -7.24208 | 34895 ft | 409 kts | 200° |
| 2026-05-07 21:10 | 39.11665 | -7.26145 | 34895 ft | 410 kts | 199° |
| 2026-05-07 21:11 | 39.06127 | -7.27984 | 34895 ft | 410 kts | 199° |
| 2026-05-07 21:11 | 38.97886 | -7.30782 | 34909 ft | 409 kts | 199° |
| 2026-05-07 21:12 | 38.92402 | -7.32682 | 34909 ft | 408 kts | 199° |
| 2026-05-07 21:12 | 38.86915 | -7.34588 | 34910 ft | 410 kts | 199° |
| 2026-05-07 21:13 | 38.81429 | -7.36492 | 34919 ft | 408 kts | 199° |
| 2026-05-07 21:13 | 38.75944 | -7.38391 | 34916 ft | 408 kts | 199° |
| 2026-05-07 21:14 | 38.70475 | -7.40287 | 34923 ft | 408 kts | 199° |
| 2026-05-07 21:14 | 38.65022 | -7.42170 | 34922 ft | 407 kts | 199° |
| 2026-05-07 21:15 | 38.59568 | -7.44055 | 34918 ft | 407 kts | 199° |
| 2026-05-07 21:15 | 38.54089 | -7.45942 | 34871 ft | 404 kts | 199° |
| 2026-05-07 21:16 | 38.51406 | -7.46864 | 34489 ft | 400 kts | 199° |
| 2026-05-07 21:16 | 38.48755 | -7.47776 | 33898 ft | 398 kts | 199° |
| 2026-05-07 21:16 | 38.46064 | -7.48708 | 33208 ft | 397 kts | 198° |
| 2026-05-07 21:16 | 38.43422 | -7.49619 | 32609 ft | 394 kts | 198° |
| 2026-05-07 21:17 | 38.40818 | -7.50514 | 32144 ft | 389 kts | 198° |
| 2026-05-07 21:17 | 38.38206 | -7.51413 | 31638 ft | 385 kts | 198° |
| 2026-05-07 21:17 | 38.35648 | -7.52291 | 31122 ft | 381 kts | 198° |
| 2026-05-07 21:17 | 38.33080 | -7.53172 | 30601 ft | 378 kts | 198° |
| 2026-05-07 21:18 | 38.30567 | -7.54033 | 30097 ft | 374 kts | 198° |
| 2026-05-07 21:18 | 38.28074 | -7.54885 | 29586 ft | 371 kts | 198° |
| 2026-05-07 21:18 | 38.25612 | -7.55730 | 29081 ft | 368 kts | 198° |
| 2026-05-07 21:18 | 38.23119 | -7.56583 | 28568 ft | 365 kts | 198° |
| 2026-05-07 21:19 | 38.20687 | -7.57414 | 28066 ft | 362 kts | 198° |
| 2026-05-07 21:19 | 38.18265 | -7.58241 | 27573 ft | 359 kts | 198° |
| 2026-05-07 21:19 | 38.15884 | -7.59052 | 27077 ft | 357 kts | 198° |
| 2026-05-07 21:19 | 38.13478 | -7.59872 | 26588 ft | 354 kts | 198° |
| 2026-05-07 21:20 | 38.11122 | -7.60651 | 26099 ft | 351 kts | 197° |
| 2026-05-07 21:20 | 38.08718 | -7.61268 | 25608 ft | 350 kts | 191° |
| 2026-05-07 21:20 | 38.06303 | -7.61542 | 25121 ft | 349 kts | 186° |
| 2026-05-07 21:20 | 38.03870 | -7.61596 | 24628 ft | 348 kts | 184° |
| 2026-05-07 21:21 | 38.01461 | -7.61571 | 24143 ft | 346 kts | 183° |
| 2026-05-07 21:21 | 37.99085 | -7.61530 | 23670 ft | 343 kts | 183° |
| 2026-05-07 21:21 | 37.96691 | -7.61494 | 23191 ft | 341 kts | 184° |
| 2026-05-07 21:21 | 37.94325 | -7.61469 | 22728 ft | 339 kts | 184° |
| 2026-05-07 21:22 | 37.91975 | -7.61457 | 22248 ft | 338 kts | 184° |
| 2026-05-07 21:22 | 37.89619 | -7.61452 | 21768 ft | 336 kts | 184° |
| 2026-05-07 21:22 | 37.87275 | -7.61455 | 21293 ft | 335 kts | 184° |
| 2026-05-07 21:22 | 37.84951 | -7.61457 | 20822 ft | 333 kts | 184° |
| 2026-05-07 21:23 | 37.82637 | -7.61458 | 20337 ft | 332 kts | 184° |
| 2026-05-07 21:23 | 37.80344 | -7.61459 | 19864 ft | 330 kts | 183° |
| 2026-05-07 21:23 | 37.78031 | -7.61461 | 19386 ft | 328 kts | 183° |
| 2026-05-07 21:23 | 37.75754 | -7.61463 | 18912 ft | 326 kts | 183° |
| 2026-05-07 21:24 | 37.73491 | -7.61465 | 18435 ft | 324 kts | 183° |
| 2026-05-07 21:24 | 37.71251 | -7.61467 | 17970 ft | 321 kts | 182° |
| 2026-05-07 21:24 | 37.69030 | -7.61467 | 17511 ft | 318 kts | 182° |
| 2026-05-07 21:24 | 37.66837 | -7.61467 | 17057 ft | 316 kts | 182° |
| 2026-05-07 21:25 | 37.64632 | -7.61468 | 16589 ft | 314 kts | 182° |
| 2026-05-07 21:25 | 37.62446 | -7.61470 | 16132 ft | 312 kts | 182° |
| 2026-05-07 21:25 | 37.60307 | -7.61471 | 15681 ft | 310 kts | 181° |
| 2026-05-07 21:25 | 37.58150 | -7.61473 | 15229 ft | 308 kts | 181° |
| 2026-05-07 21:26 | 37.55999 | -7.61474 | 14781 ft | 306 kts | 181° |
| 2026-05-07 21:26 | 37.53868 | -7.61476 | 14336 ft | 305 kts | 181° |
| 2026-05-07 21:26 | 37.51758 | -7.61477 | 13882 ft | 304 kts | 181° |
| 2026-05-07 21:26 | 37.49636 | -7.61479 | 13439 ft | 302 kts | 181° |
| 2026-05-07 21:27 | 37.47528 | -7.61480 | 12993 ft | 301 kts | 181° |
| 2026-05-07 21:27 | 37.45456 | -7.61482 | 12552 ft | 300 kts | 180° |
| 2026-05-07 21:27 | 37.43369 | -7.61484 | 12111 ft | 299 kts | 180° |
| 2026-05-07 21:27 | 37.41293 | -7.61485 | 11667 ft | 297 kts | 180° |
| 2026-05-07 21:28 | 37.39195 | -7.61485 | 11216 ft | 296 kts | 180° |
| 2026-05-07 21:28 | 37.37153 | -7.61485 | 10787 ft | 295 kts | 180° |
| 2026-05-07 21:28 | 37.35090 | -7.61485 | 10402 ft | 292 kts | 180° |
| 2026-05-07 21:28 | 37.33089 | -7.61485 | 10192 ft | 283 kts | 180° |
| 2026-05-07 21:29 | 37.31155 | -7.61485 | 10092 ft | 270 kts | 180° |
| 2026-05-07 21:29 | 37.29322 | -7.61485 | 9928 ft | 262 kts | 180° |
| 2026-05-07 21:29 | 37.27501 | -7.61485 | 9591 ft | 260 kts | 180° |
| 2026-05-07 21:29 | 37.25685 | -7.61485 | 9254 ft | 259 kts | 179° |
| 2026-05-07 21:30 | 37.23901 | -7.61485 | 8929 ft | 257 kts | 180° |
| 2026-05-07 21:30 | 37.22116 | -7.61484 | 8605 ft | 255 kts | 180° |
| 2026-05-07 21:30 | 37.20338 | -7.61484 | 8285 ft | 253 kts | 179° |
| 2026-05-07 21:30 | 37.18590 | -7.61485 | 7971 ft | 252 kts | 180° |
| 2026-05-07 21:31 | 37.16829 | -7.61486 | 7649 ft | 250 kts | 179° |
| 2026-05-07 21:31 | 37.15087 | -7.61489 | 7338 ft | 249 kts | 179° |
| 2026-05-07 21:31 | 37.13355 | -7.61491 | 7024 ft | 247 kts | 179° |
| 2026-05-07 21:31 | 37.11647 | -7.61492 | 6712 ft | 246 kts | 179° |
| 2026-05-07 21:32 | 37.09941 | -7.61494 | 6404 ft | 245 kts | 179° |
| 2026-05-07 21:32 | 37.08248 | -7.61594 | 6096 ft | 244 kts | 188° |
| 2026-05-07 21:32 | 37.06618 | -7.62219 | 5792 ft | 243 kts | 203° |
| 2026-05-07 21:32 | 37.05119 | -7.63115 | 5585 ft | 236 kts | 205° |
| 2026-05-07 21:33 | 37.03645 | -7.64008 | 5391 ft | 230 kts | 204° |
| 2026-05-07 21:33 | 37.02204 | -7.64836 | 5129 ft | 227 kts | 204° |
| 2026-05-07 21:33 | 37.00774 | -7.65629 | 4902 ft | 222 kts | 202° |
| 2026-05-07 21:33 | 36.99377 | -7.66423 | 4700 ft | 217 kts | 207° |
| 2026-05-07 21:34 | 36.98193 | -7.67548 | 4492 ft | 212 kts | 233° |
| 2026-05-07 21:34 | 36.97693 | -7.69200 | 4394 ft | 200 kts | 266° |
| 2026-05-07 21:34 | 36.97811 | -7.70906 | 4089 ft | 200 kts | 278° |
| 2026-05-07 21:34 | 36.98029 | -7.72637 | 3779 ft | 199 kts | 279° |
| 2026-05-07 21:35 | 36.98255 | -7.74332 | 3493 ft | 198 kts | 280° |
| 2026-05-07 21:35 | 36.98493 | -7.76011 | 3218 ft | 196 kts | 280° |
| 2026-05-07 21:35 | 36.98733 | -7.77684 | 2946 ft | 192 kts | 281° |
| 2026-05-07 21:35 | 36.98965 | -7.79298 | 2692 ft | 187 kts | 281° |
| 2026-05-07 21:36 | 36.99190 | -7.80864 | 2428 ft | 175 kts | 282° |
| 2026-05-07 21:36 | 36.99393 | -7.82281 | 2224 ft | 160 kts | 282° |
| 2026-05-07 21:36 | 36.99585 | -7.83619 | 1984 ft | 150 kts | 282° |
| 2026-05-07 21:36 | 36.99769 | -7.84893 | 1797 ft | 150 kts | 282° |
| 2026-05-07 21:37 | 36.99955 | -7.86183 | 1585 ft | 148 kts | 282° |
| 2026-05-07 21:37 | 37.00135 | -7.87436 | 1386 ft | 146 kts | 282° |
| 2026-05-07 21:37 | 37.00315 | -7.88688 | 1211 ft | 145 kts | 282° |
| 2026-05-07 21:37 | 37.00502 | -7.89929 | 999 ft | 145 kts | 282° |
| 2026-05-07 21:38 | 37.00693 | -7.91163 | 799 ft | 144 kts | 282° |
| 2026-05-07 21:38 | 37.00843 | -7.92391 | 598 ft | 144 kts | 279° |
| 2026-05-07 21:38 | 37.01019 | -7.93614 | 428 ft | 141 kts | 282° |
| 2026-05-07 21:38 | 37.01199 | -7.94833 | 217 ft | 141 kts | 280° |
| 2026-05-07 21:39 | 37.01360 | -7.96025 | 34 ft | 139 kts | 281° |
| 2026-05-07 21:39 | 37.01512 | -7.97082 | 18 ft | 90 kts | 278° |
| 2026-05-07 21:39 | 37.01588 | -7.97606 | 17 ft | 39 kts | 281° |
| 2026-05-07 21:39 | 37.01618 | -7.97823 | 23 ft | 15 kts | 280° |
| 2026-05-07 21:40 | 37.01650 | -7.97865 | 24 ft | 7 kts | 352° |
| 2026-05-07 21:40 | 37.01698 | -7.97844 | 24 ft | 10 kts | 38° |
| 2026-05-07 21:40 | 37.01741 | -7.97770 | 25 ft | 9 kts | 64° |
| 2026-05-07 21:40 | 37.01761 | -7.97703 | 26 ft | 7 kts | 74° |
| 2026-05-07 21:41 | 37.01769 | -7.97646 | 26 ft | 6 kts | 86° |
| 2026-05-07 21:41 | 37.01765 | -7.97583 | 26 ft | 8 kts | 98° |
| 2026-05-07 21:41 | 37.01752 | -7.97479 | 23 ft | 18 kts | 99° |
| 2026-05-07 21:41 | 37.01730 | -7.97321 | 20 ft | 19 kts | 101° |
| 2026-05-07 21:42 | 37.01706 | -7.97161 | 20 ft | 17 kts | 99° |
| 2026-05-07 21:42 | 37.01686 | -7.97019 | 22 ft | 15 kts | 100° |
| 2026-05-07 21:42 | 37.01698 | -7.96918 | 24 ft | 10 kts | 33° |
| 2026-05-07 21:42 | 37.01761 | -7.96898 | 26 ft | 7 kts | 9° |
| 2026-05-07 21:43 | 37.01812 | -7.96875 | 27 ft | 11 kts | 39° |
| 2026-05-07 21:43 | 37.01819 | -7.96780 | 28 ft | 10 kts | 101° |
| 2026-05-07 21:43 | 37.01807 | -7.96699 | 29 ft | 8 kts | 99° |
| 2026-05-07 21:43 | 37.01812 | -7.96640 | 28 ft | 3 kts | 25° |
| 2026-05-07 21:44 | 37.01836 | -7.96634 | 27 ft | 4 kts | 10° |
| 2026-05-07 21:44 | 37.01873 | -7.96626 | 27 ft | 5 kts | 9° |
| 2026-05-07 21:44 | 37.01886 | -7.96623 | 27 ft | 0 kts | 9° |